sensor_id;sensor_type;location;lat;lon;timestamp;P1;P2;P0
48893;PMS5003;34710;35.798;139.446;2022-08-25T00:02:06;15;10;
48893;PMS5003;34710;35.798;139.446;2022-08-25T00:04:36;11;8;
48893;PMS5003;34710;35.798;139.446;2022-08-25T00:07:05;8;7;
48893;PMS5003;34710;35.798;139.446;2022-08-25T00:09:35;10;7;
48893;PMS5003;34710;35.798;139.446;2022-08-25T00:12:05;8;7;
48893;PMS5003;34710;35.798;139.446;2022-08-25T00:14:35;9;8;
48893;PMS5003;34710;35.798;139.446;2022-08-25T00:17:05;12;8;
48893;PMS5003;34710;35.798;139.446;2022-08-25T00:19:36;12;9;
48893;PMS5003;34710;35.798;139.446;2022-08-25T00:22:05;11;7;
48893;PMS5003;34710;35.798;139.446;2022-08-25T00:24:35;9;9;
48893;PMS5003;34710;35.798;139.446;2022-08-25T00:27:05;10;9;
48893;PMS5003;34710;35.798;139.446;2022-08-25T00:29:34;8;8;
48893;PMS5003;34710;35.798;139.446;2022-08-25T00:32:04;9;9;
48893;PMS5003;34710;35.798;139.446;2022-08-25T00:34:36;9;9;
48893;PMS5003;34710;35.798;139.446;2022-08-25T00:37:05;9;7;
48893;PMS5003;34710;35.798;139.446;2022-08-25T00:39:35;8;7;
48893;PMS5003;34710;35.798;139.446;2022-08-25T00:42:06;9;5;
48893;PMS5003;34710;35.798;139.446;2022-08-25T00:44:36;9;6;
48893;PMS5003;34710;35.798;139.446;2022-08-25T00:47:06;8;7;
48893;PMS5003;34710;35.798;139.446;2022-08-25T00:49:38;12;7;
48893;PMS5003;34710;35.798;139.446;2022-08-25T00:52:11;11;7;
48893;PMS5003;34710;35.798;139.446;2022-08-25T00:54:44;12;9;
48893;PMS5003;34710;35.798;139.446;2022-08-25T00:57:20;9;8;
48893;PMS5003;34710;35.798;139.446;2022-08-25T00:59:53;10;9;
48893;PMS5003;34710;35.798;139.446;2022-08-25T01:02:23;9;7;
48893;PMS5003;34710;35.798;139.446;2022-08-25T01:04:53;9;9;
48893;PMS5003;34710;35.798;139.446;2022-08-25T01:07:22;8;7;
48893;PMS5003;34710;35.798;139.446;2022-08-25T01:09:52;7;7;
48893;PMS5003;34710;35.798;139.446;2022-08-25T01:12:21;6;6;
48893;PMS5003;34710;35.798;139.446;2022-08-25T01:14:52;11;8;
48893;PMS5003;34710;35.798;139.446;2022-08-25T01:17:23;12;9;
48893;PMS5003;34710;35.798;139.446;2022-08-25T01:19:59;8;8;
48893;PMS5003;34710;35.798;139.446;2022-08-25T01:22:29;11;10;
48893;PMS5003;34710;35.798;139.446;2022-08-25T01:25:00;12;8;
48893;PMS5003;34710;35.798;139.446;2022-08-25T01:27:31;11;11;
48893;PMS5003;34710;35.798;139.446;2022-08-25T01:30:00;12;10;
48893;PMS5003;34710;35.798;139.446;2022-08-25T01:32:32;10;9;
48893;PMS5003;34710;35.798;139.446;2022-08-25T01:35:01;9;7;
48893;PMS5003;34710;35.798;139.446;2022-08-25T01:37:32;12;10;
48893;PMS5003;34710;35.798;139.446;2022-08-25T01:40:03;11;8;
48893;PMS5003;34710;35.798;139.446;2022-08-25T01:42:37;14;9;
48893;PMS5003;34710;35.798;139.446;2022-08-25T01:45:13;13;10;
48893;PMS5003;34710;35.798;139.446;2022-08-25T01:47:43;13;9;
48893;PMS5003;34710;35.798;139.446;2022-08-25T01:50:12;9;7;
48893;PMS5003;34710;35.798;139.446;2022-08-25T01:52:45;11;8;
48893;PMS5003;34710;35.798;139.446;2022-08-25T01:55:21;12;10;
48893;PMS5003;34710;35.798;139.446;2022-08-25T01:57:50;10;10;
48893;PMS5003;34710;35.798;139.446;2022-08-25T02:00:20;11;8;
48893;PMS5003;34710;35.798;139.446;2022-08-25T02:02:50;10;9;
48893;PMS5003;34710;35.798;139.446;2022-08-25T02:05:19;11;10;
48893;PMS5003;34710;35.798;139.446;2022-08-25T02:07:49;13;12;
48893;PMS5003;34710;35.798;139.446;2022-08-25T02:10:18;12;11;
48893;PMS5003;34710;35.798;139.446;2022-08-25T02:12:48;14;11;
48893;PMS5003;34710;35.798;139.446;2022-08-25T02:15:18;13;9;
48893;PMS5003;34710;35.798;139.446;2022-08-25T02:17:47;14;10;
48893;PMS5003;34710;35.798;139.446;2022-08-25T02:20:17;11;9;
48893;PMS5003;34710;35.798;139.446;2022-08-25T02:22:46;10;8;
48893;PMS5003;34710;35.798;139.446;2022-08-25T02:25:16;12;9;
48893;PMS5003;34710;35.798;139.446;2022-08-25T02:27:46;9;8;
48893;PMS5003;34710;35.798;139.446;2022-08-25T02:30:15;10;9;
48893;PMS5003;34710;35.798;139.446;2022-08-25T02:32:44;11;8;
48893;PMS5003;34710;35.798;139.446;2022-08-25T02:35:14;12;10;
48893;PMS5003;34710;35.798;139.446;2022-08-25T02:37:44;7;6;
48893;PMS5003;34710;35.798;139.446;2022-08-25T02:40:13;11;9;
48893;PMS5003;34710;35.798;139.446;2022-08-25T02:42:42;14;12;
48893;PMS5003;34710;35.798;139.446;2022-08-25T02:45:12;13;8;
48893;PMS5003;34710;35.798;139.446;2022-08-25T02:47:42;11;9;
48893;PMS5003;34710;35.798;139.446;2022-08-25T02:50:11;9;9;
48893;PMS5003;34710;35.798;139.446;2022-08-25T02:52:40;10;9;
48893;PMS5003;34710;35.798;139.446;2022-08-25T02:55:10;13;12;
48893;PMS5003;34710;35.798;139.446;2022-08-25T02:57:39;9;9;
48893;PMS5003;34710;35.798;139.446;2022-08-25T03:00:10;8;7;
48893;PMS5003;34710;35.798;139.446;2022-08-25T03:02:41;11;10;
48893;PMS5003;34710;35.798;139.446;2022-08-25T03:05:13;10;9;
48893;PMS5003;34710;35.798;139.446;2022-08-25T03:07:43;9;8;
48893;PMS5003;34710;35.798;139.446;2022-08-25T03:10:13;7;7;
48893;PMS5003;34710;35.798;139.446;2022-08-25T03:12:44;9;8;
48893;PMS5003;34710;35.798;139.446;2022-08-25T03:15:15;12;9;
48893;PMS5003;34710;35.798;139.446;2022-08-25T03:17:45;10;9;
48893;PMS5003;34710;35.798;139.446;2022-08-25T03:20:14;11;8;
48893;PMS5003;34710;35.798;139.446;2022-08-25T03:22:43;11;9;
48893;PMS5003;34710;35.798;139.446;2022-08-25T03:25:13;11;9;
48893;PMS5003;34710;35.798;139.446;2022-08-25T03:27:43;16;10;
48893;PMS5003;34710;35.798;139.446;2022-08-25T03:30:14;10;8;
48893;PMS5003;34710;35.798;139.446;2022-08-25T03:32:43;9;8;
48893;PMS5003;34710;35.798;139.446;2022-08-25T03:35:12;11;8;
48893;PMS5003;34710;35.798;139.446;2022-08-25T03:37:42;8;8;
48893;PMS5003;34710;35.798;139.446;2022-08-25T03:40:12;13;7;
48893;PMS5003;34710;35.798;139.446;2022-08-25T03:42:43;9;7;
48893;PMS5003;34710;35.798;139.446;2022-08-25T03:45:13;7;7;
48893;PMS5003;34710;35.798;139.446;2022-08-25T03:47:44;13;10;
48893;PMS5003;34710;35.798;139.446;2022-08-25T03:50:15;9;9;
48893;PMS5003;34710;35.798;139.446;2022-08-25T03:52:50;9;7;
48893;PMS5003;34710;35.798;139.446;2022-08-25T03:55:20;10;9;
48893;PMS5003;34710;35.798;139.446;2022-08-25T03:57:51;10;10;
48893;PMS5003;34710;35.798;139.446;2022-08-25T04:00:21;9;9;
48893;PMS5003;34710;35.798;139.446;2022-08-25T04:02:50;8;8;
48893;PMS5003;34710;35.798;139.446;2022-08-25T04:05:21;13;11;
48893;PMS5003;34710;35.798;139.446;2022-08-25T04:07:50;11;9;
48893;PMS5003;34710;35.798;139.446;2022-08-25T04:10:20;13;10;
48893;PMS5003;34710;35.798;139.446;2022-08-25T04:12:49;11;8;
48893;PMS5003;34710;35.798;139.446;2022-08-25T04:15:19;10;8;
48893;PMS5003;34710;35.798;139.446;2022-08-25T04:17:49;11;9;
48893;PMS5003;34710;35.798;139.446;2022-08-25T04:20:19;12;10;
48893;PMS5003;34710;35.798;139.446;2022-08-25T04:22:48;10;7;
48893;PMS5003;34710;35.798;139.446;2022-08-25T04:25:18;9;9;
48893;PMS5003;34710;35.798;139.446;2022-08-25T04:27:47;12;9;
48893;PMS5003;34710;35.798;139.446;2022-08-25T04:30:17;13;11;
48893;PMS5003;34710;35.798;139.446;2022-08-25T04:32:46;10;9;
48893;PMS5003;34710;35.798;139.446;2022-08-25T04:35:15;10;8;
48893;PMS5003;34710;35.798;139.446;2022-08-25T04:37:45;12;8;
48893;PMS5003;34710;35.798;139.446;2022-08-25T04:40:15;10;7;
48893;PMS5003;34710;35.798;139.446;2022-08-25T04:42:44;13;9;
48893;PMS5003;34710;35.798;139.446;2022-08-25T04:45:14;14;12;
48893;PMS5003;34710;35.798;139.446;2022-08-25T04:47:43;14;9;
48893;PMS5003;34710;35.798;139.446;2022-08-25T04:50:13;21;10;
48893;PMS5003;34710;35.798;139.446;2022-08-25T04:52:42;15;13;
48893;PMS5003;34710;35.798;139.446;2022-08-25T04:55:11;15;12;
48893;PMS5003;34710;35.798;139.446;2022-08-25T04:57:42;19;11;
48893;PMS5003;34710;35.798;139.446;2022-08-25T05:00:11;13;12;
48893;PMS5003;34710;35.798;139.446;2022-08-25T05:02:41;12;12;
48893;PMS5003;34710;35.798;139.446;2022-08-25T05:05:10;12;10;
48893;PMS5003;34710;35.798;139.446;2022-08-25T05:07:40;12;9;
48893;PMS5003;34710;35.798;139.446;2022-08-25T05:10:09;14;11;
48893;PMS5003;34710;35.798;139.446;2022-08-25T05:12:38;11;8;
48893;PMS5003;34710;35.798;139.446;2022-08-25T05:15:08;14;10;
48893;PMS5003;34710;35.798;139.446;2022-08-25T05:17:38;11;11;
48893;PMS5003;34710;35.798;139.446;2022-08-25T05:20:07;10;10;
48893;PMS5003;34710;35.798;139.446;2022-08-25T05:22:37;10;10;
48893;PMS5003;34710;35.798;139.446;2022-08-25T05:25:10;13;11;
48893;PMS5003;34710;35.798;139.446;2022-08-25T05:27:40;12;11;
48893;PMS5003;34710;35.798;139.446;2022-08-25T05:30:10;12;11;
48893;PMS5003;34710;35.798;139.446;2022-08-25T05:32:40;17;13;
48893;PMS5003;34710;35.798;139.446;2022-08-25T05:35:09;15;12;
48893;PMS5003;34710;35.798;139.446;2022-08-25T05:37:38;11;11;
48893;PMS5003;34710;35.798;139.446;2022-08-25T05:40:08;13;12;
48893;PMS5003;34710;35.798;139.446;2022-08-25T05:42:37;16;10;
48893;PMS5003;34710;35.798;139.446;2022-08-25T05:45:07;9;8;
48893;PMS5003;34710;35.798;139.446;2022-08-25T05:47:37;14;11;
48893;PMS5003;34710;35.798;139.446;2022-08-25T05:50:07;12;10;
48893;PMS5003;34710;35.798;139.446;2022-08-25T05:52:37;12;10;
48893;PMS5003;34710;35.798;139.446;2022-08-25T05:55:06;16;10;
48893;PMS5003;34710;35.798;139.446;2022-08-25T05:57:37;22;13;
48893;PMS5003;34710;35.798;139.446;2022-08-25T06:00:07;12;10;
48893;PMS5003;34710;35.798;139.446;2022-08-25T06:02:37;13;12;
48893;PMS5003;34710;35.798;139.446;2022-08-25T06:05:07;19;11;
48893;PMS5003;34710;35.798;139.446;2022-08-25T06:07:37;10;10;
48893;PMS5003;34710;35.798;139.446;2022-08-25T06:10:08;11;11;
48893;PMS5003;34710;35.798;139.446;2022-08-25T06:12:39;13;10;
48893;PMS5003;34710;35.798;139.446;2022-08-25T06:15:10;18;11;
48893;PMS5003;34710;35.798;139.446;2022-08-25T06:17:39;10;10;
48893;PMS5003;34710;35.798;139.446;2022-08-25T06:20:10;14;10;
48893;PMS5003;34710;35.798;139.446;2022-08-25T06:22:41;13;9;
48893;PMS5003;34710;35.798;139.446;2022-08-25T06:25:12;12;9;
48893;PMS5003;34710;35.798;139.446;2022-08-25T06:27:43;15;13;
48893;PMS5003;34710;35.798;139.446;2022-08-25T06:30:15;15;11;
48893;PMS5003;34710;35.798;139.446;2022-08-25T06:32:47;16;11;
48893;PMS5003;34710;35.798;139.446;2022-08-25T06:35:17;16;12;
48893;PMS5003;34710;35.798;139.446;2022-08-25T06:37:47;11;10;
48893;PMS5003;34710;35.798;139.446;2022-08-25T06:40:16;15;12;
48893;PMS5003;34710;35.798;139.446;2022-08-25T06:42:47;15;12;
48893;PMS5003;34710;35.798;139.446;2022-08-25T06:45:16;10;10;
48893;PMS5003;34710;35.798;139.446;2022-08-25T06:47:45;9;9;
48893;PMS5003;34710;35.798;139.446;2022-08-25T06:50:15;11;10;
48893;PMS5003;34710;35.798;139.446;2022-08-25T06:52:45;13;11;
48893;PMS5003;34710;35.798;139.446;2022-08-25T06:55:14;12;9;
48893;PMS5003;34710;35.798;139.446;2022-08-25T06:57:44;14;12;
48893;PMS5003;34710;35.798;139.446;2022-08-25T07:00:13;11;10;
48893;PMS5003;34710;35.798;139.446;2022-08-25T07:02:43;14;12;
48893;PMS5003;34710;35.798;139.446;2022-08-25T07:05:12;11;9;
48893;PMS5003;34710;35.798;139.446;2022-08-25T07:07:42;13;12;
48893;PMS5003;34710;35.798;139.446;2022-08-25T07:10:11;15;11;
48893;PMS5003;34710;35.798;139.446;2022-08-25T07:12:40;20;15;
48893;PMS5003;34710;35.798;139.446;2022-08-25T07:15:10;17;13;
48893;PMS5003;34710;35.798;139.446;2022-08-25T07:17:39;13;11;
48893;PMS5003;34710;35.798;139.446;2022-08-25T07:20:09;14;13;
48893;PMS5003;34710;35.798;139.446;2022-08-25T07:22:38;16;15;
48893;PMS5003;34710;35.798;139.446;2022-08-25T07:25:08;13;13;
48893;PMS5003;34710;35.798;139.446;2022-08-25T07:27:38;13;11;
48893;PMS5003;34710;35.798;139.446;2022-08-25T07:30:08;20;11;
48893;PMS5003;34710;35.798;139.446;2022-08-25T07:32:37;20;12;
48893;PMS5003;34710;35.798;139.446;2022-08-25T07:35:06;11;11;
48893;PMS5003;34710;35.798;139.446;2022-08-25T07:37:37;19;13;
48893;PMS5003;34710;35.798;139.446;2022-08-25T07:40:07;13;11;
48893;PMS5003;34710;35.798;139.446;2022-08-25T07:42:38;13;10;
48893;PMS5003;34710;35.798;139.446;2022-08-25T07:45:09;12;9;
48893;PMS5003;34710;35.798;139.446;2022-08-25T07:47:39;14;12;
48893;PMS5003;34710;35.798;139.446;2022-08-25T07:50:09;17;12;
48893;PMS5003;34710;35.798;139.446;2022-08-25T07:52:39;13;12;
48893;PMS5003;34710;35.798;139.446;2022-08-25T07:55:09;15;12;
48893;PMS5003;34710;35.798;139.446;2022-08-25T07:57:39;18;14;
48893;PMS5003;34710;35.798;139.446;2022-08-25T08:00:09;18;13;
48893;PMS5003;34710;35.798;139.446;2022-08-25T08:02:41;13;12;
48893;PMS5003;34710;35.798;139.446;2022-08-25T08:05:12;13;11;
48893;PMS5003;34710;35.798;139.446;2022-08-25T08:07:42;16;12;
48893;PMS5003;34710;35.798;139.446;2022-08-25T08:10:12;18;15;
48893;PMS5003;34710;35.798;139.446;2022-08-25T08:12:42;13;10;
48893;PMS5003;34710;35.798;139.446;2022-08-25T08:15:11;24;12;
48893;PMS5003;34710;35.798;139.446;2022-08-25T08:17:41;16;12;
48893;PMS5003;34710;35.798;139.446;2022-08-25T08:20:12;14;13;
48893;PMS5003;34710;35.798;139.446;2022-08-25T08:22:41;16;13;
48893;PMS5003;34710;35.798;139.446;2022-08-25T08:25:12;17;13;
48893;PMS5003;34710;35.798;139.446;2022-08-25T08:27:41;12;10;
48893;PMS5003;34710;35.798;139.446;2022-08-25T08:30:11;12;12;
48893;PMS5003;34710;35.798;139.446;2022-08-25T08:32:41;12;10;
48893;PMS5003;34710;35.798;139.446;2022-08-25T08:35:10;31;15;
48893;PMS5003;34710;35.798;139.446;2022-08-25T08:37:40;16;13;
48893;PMS5003;34710;35.798;139.446;2022-08-25T08:40:09;13;11;
48893;PMS5003;34710;35.798;139.446;2022-08-25T08:42:46;14;11;
48893;PMS5003;34710;35.798;139.446;2022-08-25T08:45:32;18;13;
48893;PMS5003;34710;35.798;139.446;2022-08-25T08:48:20;12;11;
48893;PMS5003;34710;35.798;139.446;2022-08-25T08:51:14;14;10;
48893;PMS5003;34710;35.798;139.446;2022-08-25T08:53:48;10;7;
48893;PMS5003;34710;35.798;139.446;2022-08-25T08:56:22;12;11;
48893;PMS5003;34710;35.798;139.446;2022-08-25T08:58:55;13;10;
48893;PMS5003;34710;35.798;139.446;2022-08-25T09:01:28;27;11;
48893;PMS5003;34710;35.798;139.446;2022-08-25T09:04:02;14;12;
48893;PMS5003;34710;35.798;139.446;2022-08-25T09:06:38;14;13;
48893;PMS5003;34710;35.798;139.446;2022-08-25T09:09:11;18;10;
48893;PMS5003;34710;35.798;139.446;2022-08-25T09:11:47;14;11;
48893;PMS5003;34710;35.798;139.446;2022-08-25T09:14:30;15;10;
48893;PMS5003;34710;35.798;139.446;2022-08-25T09:17:08;14;12;
48893;PMS5003;34710;35.798;139.446;2022-08-25T09:19:51;16;12;
48893;PMS5003;34710;35.798;139.446;2022-08-25T09:22:35;14;10;
48893;PMS5003;34710;35.798;139.446;2022-08-25T09:25:16;11;10;
48893;PMS5003;34710;35.798;139.446;2022-08-25T09:27:54;16;10;
48893;PMS5003;34710;35.798;139.446;2022-08-25T09:30:30;10;10;
48893;PMS5003;34710;35.798;139.446;2022-08-25T09:33:11;13;9;
48893;PMS5003;34710;35.798;139.446;2022-08-25T09:35:45;11;9;
48893;PMS5003;34710;35.798;139.446;2022-08-25T09:38:16;14;10;
48893;PMS5003;34710;35.798;139.446;2022-08-25T09:40:47;16;11;
48893;PMS5003;34710;35.798;139.446;2022-08-25T09:43:20;13;9;
48893;PMS5003;34710;35.798;139.446;2022-08-25T09:45:57;16;12;
48893;PMS5003;34710;35.798;139.446;2022-08-25T09:48:29;19;11;
48893;PMS5003;34710;35.798;139.446;2022-08-25T09:51:01;15;10;
48893;PMS5003;34710;35.798;139.446;2022-08-25T09:53:43;16;12;
48893;PMS5003;34710;35.798;139.446;2022-08-25T09:56:18;14;11;
48893;PMS5003;34710;35.798;139.446;2022-08-25T09:58:50;17;11;
48893;PMS5003;34710;35.798;139.446;2022-08-25T10:01:20;14;13;
48893;PMS5003;34710;35.798;139.446;2022-08-25T10:03:55;16;10;
48893;PMS5003;34710;35.798;139.446;2022-08-25T10:06:27;13;9;
48893;PMS5003;34710;35.798;139.446;2022-08-25T10:09:00;12;10;
48893;PMS5003;34710;35.798;139.446;2022-08-25T10:11:33;16;12;
48893;PMS5003;34710;35.798;139.446;2022-08-25T10:14:15;16;12;
48893;PMS5003;34710;35.798;139.446;2022-08-25T10:16:47;16;11;
48893;PMS5003;34710;35.798;139.446;2022-08-25T10:19:25;14;13;
48893;PMS5003;34710;35.798;139.446;2022-08-25T10:22:02;17;14;
48893;PMS5003;34710;35.798;139.446;2022-08-25T10:24:34;16;12;
48893;PMS5003;34710;35.798;139.446;2022-08-25T10:27:07;22;15;
48893;PMS5003;34710;35.798;139.446;2022-08-25T10:29:51;20;15;
48893;PMS5003;34710;35.798;139.446;2022-08-25T10:32:34;17;15;
48893;PMS5003;34710;35.798;139.446;2022-08-25T10:35:16;21;18;
48893;PMS5003;34710;35.798;139.446;2022-08-25T10:37:52;27;20;
48893;PMS5003;34710;35.798;139.446;2022-08-25T10:40:36;28;15;
48893;PMS5003;34710;35.798;139.446;2022-08-25T10:43:14;17;16;
48893;PMS5003;34710;35.798;139.446;2022-08-25T10:45:54;18;13;
48893;PMS5003;34710;35.798;139.446;2022-08-25T10:48:33;15;14;
48893;PMS5003;34710;35.798;139.446;2022-08-25T10:51:19;20;14;
48893;PMS5003;34710;35.798;139.446;2022-08-25T10:54:04;21;15;
48893;PMS5003;34710;35.798;139.446;2022-08-25T10:56:45;18;14;
48893;PMS5003;34710;35.798;139.446;2022-08-25T10:59:29;14;12;
48893;PMS5003;34710;35.798;139.446;2022-08-25T11:02:20;16;11;
48893;PMS5003;34710;35.798;139.446;2022-08-25T11:05:16;13;11;
48893;PMS5003;34710;35.798;139.446;2022-08-25T11:07:53;13;10;
48893;PMS5003;34710;35.798;139.446;2022-08-25T11:10:33;17;14;
48893;PMS5003;34710;35.798;139.446;2022-08-25T11:13:12;17;16;
48893;PMS5003;34710;35.798;139.446;2022-08-25T11:15:50;16;15;
48893;PMS5003;34710;35.798;139.446;2022-08-25T11:18:25;21;16;
48893;PMS5003;34710;35.798;139.446;2022-08-25T11:21:00;20;16;
48893;PMS5003;34710;35.798;139.446;2022-08-25T11:23:37;21;16;
48893;PMS5003;34710;35.798;139.446;2022-08-25T11:26:12;17;16;
48893;PMS5003;34710;35.798;139.446;2022-08-25T11:28:49;32;16;
48893;PMS5003;34710;35.798;139.446;2022-08-25T11:31:27;18;17;
48893;PMS5003;34710;35.798;139.446;2022-08-25T11:33:57;21;17;
48893;PMS5003;34710;35.798;139.446;2022-08-25T11:36:28;17;17;
48893;PMS5003;34710;35.798;139.446;2022-08-25T11:39:05;23;20;
48893;PMS5003;34710;35.798;139.446;2022-08-25T11:41:45;20;17;
48893;PMS5003;34710;35.798;139.446;2022-08-25T11:44:37;24;19;
48893;PMS5003;34710;35.798;139.446;2022-08-25T11:47:22;22;19;
48893;PMS5003;34710;35.798;139.446;2022-08-25T11:50:02;24;15;
48893;PMS5003;34710;35.798;139.446;2022-08-25T11:52:43;20;19;
48893;PMS5003;34710;35.798;139.446;2022-08-25T11:55:16;26;18;
48893;PMS5003;34710;35.798;139.446;2022-08-25T11:57:47;22;20;
48893;PMS5003;34710;35.798;139.446;2022-08-25T12:00:35;19;16;
48893;PMS5003;34710;35.798;139.446;2022-08-25T12:04:10;27;19;
48893;PMS5003;34710;35.798;139.446;2022-08-25T12:08:53;17;15;
48893;PMS5003;34710;35.798;139.446;2022-08-25T12:11:47;21;19;
48893;PMS5003;34710;35.798;139.446;2022-08-25T12:14:45;24;21;
48893;PMS5003;34710;35.798;139.446;2022-08-25T12:17:19;19;16;
48893;PMS5003;34710;35.798;139.446;2022-08-25T12:20:03;18;16;
48893;PMS5003;34710;35.798;139.446;2022-08-25T12:22:39;21;16;
48893;PMS5003;34710;35.798;139.446;2022-08-25T12:25:24;22;16;
48893;PMS5003;34710;35.798;139.446;2022-08-25T12:28:06;24;18;
48893;PMS5003;34710;35.798;139.446;2022-08-25T12:30:51;20;18;
48893;PMS5003;34710;35.798;139.446;2022-08-25T12:33:28;23;18;
48893;PMS5003;34710;35.798;139.446;2022-08-25T12:36:09;19;16;
48893;PMS5003;34710;35.798;139.446;2022-08-25T12:38:52;25;20;
48893;PMS5003;34710;35.798;139.446;2022-08-25T12:41:24;20;19;
48893;PMS5003;34710;35.798;139.446;2022-08-25T12:44:07;28;20;
48893;PMS5003;34710;35.798;139.446;2022-08-25T12:47:05;20;16;
48893;PMS5003;34710;35.798;139.446;2022-08-25T12:49:40;21;18;
48893;PMS5003;34710;35.798;139.446;2022-08-25T12:52:11;19;16;
48893;PMS5003;34710;35.798;139.446;2022-08-25T12:54:45;30;17;
48893;PMS5003;34710;35.798;139.446;2022-08-25T12:57:26;23;18;
48893;PMS5003;34710;35.798;139.446;2022-08-25T13:00:05;20;19;
48893;PMS5003;34710;35.798;139.446;2022-08-25T13:02:51;37;20;
48893;PMS5003;34710;35.798;139.446;2022-08-25T13:05:46;17;17;
48893;PMS5003;34710;35.798;139.446;2022-08-25T13:08:47;23;18;
48893;PMS5003;34710;35.798;139.446;2022-08-25T13:11:47;24;19;
48893;PMS5003;34710;35.798;139.446;2022-08-25T13:14:21;29;17;
48893;PMS5003;34710;35.798;139.446;2022-08-25T13:16:58;21;19;
48893;PMS5003;34710;35.798;139.446;2022-08-25T13:19:28;25;19;
48893;PMS5003;34710;35.798;139.446;2022-08-25T13:21:59;24;18;
48893;PMS5003;34710;35.798;139.446;2022-08-25T13:24:31;27;20;
48893;PMS5003;34710;35.798;139.446;2022-08-25T13:27:03;26;18;
48893;PMS5003;34710;35.798;139.446;2022-08-25T13:29:35;25;22;
48893;PMS5003;34710;35.798;139.446;2022-08-25T13:32:23;26;19;
48893;PMS5003;34710;35.798;139.446;2022-08-25T13:35:06;27;20;
48893;PMS5003;34710;35.798;139.446;2022-08-25T13:37:41;20;19;
48893;PMS5003;34710;35.798;139.446;2022-08-25T13:40:11;25;21;
48893;PMS5003;34710;35.798;139.446;2022-08-25T13:42:43;20;18;
48893;PMS5003;34710;35.798;139.446;2022-08-25T13:45:14;28;18;
48893;PMS5003;34710;35.798;139.446;2022-08-25T13:47:46;19;18;
48893;PMS5003;34710;35.798;139.446;2022-08-25T13:50:18;29;21;
48893;PMS5003;34710;35.798;139.446;2022-08-25T13:52:56;25;22;
48893;PMS5003;34710;35.798;139.446;2022-08-25T13:55:30;30;22;
48893;PMS5003;34710;35.798;139.446;2022-08-25T13:58:02;29;19;
48893;PMS5003;34710;35.798;139.446;2022-08-25T14:00:40;30;18;
48893;PMS5003;34710;35.798;139.446;2022-08-25T14:03:28;23;19;
48893;PMS5003;34710;35.798;139.446;2022-08-25T14:06:07;24;20;
48893;PMS5003;34710;35.798;139.446;2022-08-25T14:08:46;23;22;
48893;PMS5003;34710;35.798;139.446;2022-08-25T14:11:31;29;20;
48893;PMS5003;34710;35.798;139.446;2022-08-25T14:14:09;30;22;
48893;PMS5003;34710;35.798;139.446;2022-08-25T14:16:46;24;21;
48893;PMS5003;34710;35.798;139.446;2022-08-25T14:19:16;30;24;
48893;PMS5003;34710;35.798;139.446;2022-08-25T14:21:48;24;19;
48893;PMS5003;34710;35.798;139.446;2022-08-25T14:24:19;22;19;
48893;PMS5003;34710;35.798;139.446;2022-08-25T14:26:50;31;21;
48893;PMS5003;34710;35.798;139.446;2022-08-25T14:29:20;21;17;
48893;PMS5003;34710;35.798;139.446;2022-08-25T14:31:49;33;19;
48893;PMS5003;34710;35.798;139.446;2022-08-25T14:34:19;26;18;
48893;PMS5003;34710;35.798;139.446;2022-08-25T14:36:50;23;19;
48893;PMS5003;34710;35.798;139.446;2022-08-25T14:39:19;27;20;
48893;PMS5003;34710;35.798;139.446;2022-08-25T14:41:48;19;16;
48893;PMS5003;34710;35.798;139.446;2022-08-25T14:44:18;29;20;
48893;PMS5003;34710;35.798;139.446;2022-08-25T14:46:49;26;18;
48893;PMS5003;34710;35.798;139.446;2022-08-25T14:49:22;18;17;
48893;PMS5003;34710;35.798;139.446;2022-08-25T14:51:54;32;18;
48893;PMS5003;34710;35.798;139.446;2022-08-25T14:54:25;20;17;
48893;PMS5003;34710;35.798;139.446;2022-08-25T14:56:55;29;16;
48893;PMS5003;34710;35.798;139.446;2022-08-25T14:59:24;23;17;
48893;PMS5003;34710;35.798;139.446;2022-08-25T15:01:53;28;16;
48893;PMS5003;34710;35.798;139.446;2022-08-25T15:04:24;21;19;
48893;PMS5003;34710;35.798;139.446;2022-08-25T15:06:57;31;18;
48893;PMS5003;34710;35.798;139.446;2022-08-25T15:09:28;27;19;
48893;PMS5003;34710;35.798;139.446;2022-08-25T15:11:57;21;18;
48893;PMS5003;34710;35.798;139.446;2022-08-25T15:14:26;22;19;
48893;PMS5003;34710;35.798;139.446;2022-08-25T15:16:56;21;20;
48893;PMS5003;34710;35.798;139.446;2022-08-25T15:19:25;21;20;
48893;PMS5003;34710;35.798;139.446;2022-08-25T15:21:54;25;17;
48893;PMS5003;34710;35.798;139.446;2022-08-25T15:24:24;18;16;
48893;PMS5003;34710;35.798;139.446;2022-08-25T15:26:55;31;18;
48893;PMS5003;34710;35.798;139.446;2022-08-25T15:29:26;27;19;
48893;PMS5003;34710;35.798;139.446;2022-08-25T15:31:57;19;18;
48893;PMS5003;34710;35.798;139.446;2022-08-25T15:34:27;28;18;
48893;PMS5003;34710;35.798;139.446;2022-08-25T15:36:57;22;17;
48893;PMS5003;34710;35.798;139.446;2022-08-25T15:39:33;26;22;
48893;PMS5003;34710;35.798;139.446;2022-08-25T15:42:04;22;17;
48893;PMS5003;34710;35.798;139.446;2022-08-25T15:44:36;24;20;
48893;PMS5003;34710;35.798;139.446;2022-08-25T15:47:07;27;17;
48893;PMS5003;34710;35.798;139.446;2022-08-25T15:49:37;17;16;
48893;PMS5003;34710;35.798;139.446;2022-08-25T15:52:07;18;16;
48893;PMS5003;34710;35.798;139.446;2022-08-25T15:54:36;21;15;
48893;PMS5003;34710;35.798;139.446;2022-08-25T15:57:05;23;16;
48893;PMS5003;34710;35.798;139.446;2022-08-25T15:59:34;21;18;
48893;PMS5003;34710;35.798;139.446;2022-08-25T16:02:03;26;17;
48893;PMS5003;34710;35.798;139.446;2022-08-25T16:04:33;19;18;
48893;PMS5003;34710;35.798;139.446;2022-08-25T16:07:02;28;15;
48893;PMS5003;34710;35.798;139.446;2022-08-25T16:09:32;27;20;
48893;PMS5003;34710;35.798;139.446;2022-08-25T16:12:02;24;18;
48893;PMS5003;34710;35.798;139.446;2022-08-25T16:14:31;29;17;
48893;PMS5003;34710;35.798;139.446;2022-08-25T16:17:00;31;17;
48893;PMS5003;34710;35.798;139.446;2022-08-25T16:19:29;34;20;
48893;PMS5003;34710;35.798;139.446;2022-08-25T16:22:00;20;16;
48893;PMS5003;34710;35.798;139.446;2022-08-25T16:24:29;29;19;
48893;PMS5003;34710;35.798;139.446;2022-08-25T16:26:59;27;18;
48893;PMS5003;34710;35.798;139.446;2022-08-25T16:29:28;22;21;
48893;PMS5003;34710;35.798;139.446;2022-08-25T16:31:58;25;20;